Rosalind, Canada
Current Conditions -  °F | °C
As of 12:00 PM on Thursday 18 Dec 2014 (Local Time) from CYEG Reporting Station
Haze Haze  
Wind Chill: 16°   Ceiling: 25000
Heat Index: 16°   Visibility: 6mi
Dew Point: 12°   Wind: 2mph
Humidity: 86%   Direction: 250°WSW
Pressure: 29.83"   Gusts: NA
Location:  52.78°N, 112.45°W
Report Text: CYEG 181900Z 25002KT 6SM BR FEW110 SCT130 BKN250 M09/M11 A2983 RMK AC1AS3CI3 SLP152
Loading
Personal Weather Stations






























Interactive Weather Map New forecast layout! Learn more

10-Day Weather Forecast

Advertisements
Track Severe Weather on mobile